< < Back
Terminal Aerodrome Forecast


Current Version              Previous Versions:   1  2  3  4  5  6  7  8  9  

Terminal Aerodrome Forecast

681
FTUS42 KJAX 272300
TAFGNV
TAF
KGNV 272320Z 2800/2824 32010KT P6SM SKC
     FM280200 33005KT P6SM SKC
     FM281400 36010KT P6SM SKC=



Latest METAR

496
SAUS70 KWBC 280800 RRF
MTRGNV
METAR KGNV 280753Z AUTO 35005KT 10SM CLR 04/00 A3034 RMK AO2 SLP274
T00390000


USA.gov is the U.S. government's official web portal to all federal, state and local government web resources and services.